sensor_id;sensor_type;location;lat;lon;timestamp;P1;durP1;ratioP1;P2;durP2;ratioP2
15833;SDS011;8017;50.812;4.934;2022-09-13T00:00:28;5.87;;;4.40;;
15833;SDS011;8017;50.812;4.934;2022-09-13T00:03:30;5.77;;;4.13;;
15833;SDS011;8017;50.812;4.934;2022-09-13T00:06:32;7.80;;;4.63;;
15833;SDS011;8017;50.812;4.934;2022-09-13T00:09:35;5.67;;;4.13;;
15833;SDS011;8017;50.812;4.934;2022-09-13T00:12:38;5.17;;;4.63;;
15833;SDS011;8017;50.812;4.934;2022-09-13T00:15:41;6.10;;;4.90;;
15833;SDS011;8017;50.812;4.934;2022-09-13T00:18:44;4.50;;;4.07;;
15833;SDS011;8017;50.812;4.934;2022-09-13T00:21:46;4.93;;;4.40;;
15833;SDS011;8017;50.812;4.934;2022-09-13T00:24:48;5.00;;;4.50;;
15833;SDS011;8017;50.812;4.934;2022-09-13T00:27:51;5.20;;;4.03;;
15833;SDS011;8017;50.812;4.934;2022-09-13T00:30:53;6.50;;;4.20;;
15833;SDS011;8017;50.812;4.934;2022-09-13T00:33:59;4.30;;;3.90;;
15833;SDS011;8017;50.812;4.934;2022-09-13T00:37:00;4.73;;;4.07;;
15833;SDS011;8017;50.812;4.934;2022-09-13T00:40:02;7.57;;;4.40;;
15833;SDS011;8017;50.812;4.934;2022-09-13T00:43:09;6.53;;;4.43;;
15833;SDS011;8017;50.812;4.934;2022-09-13T00:46:18;5.43;;;4.57;;
15833;SDS011;8017;50.812;4.934;2022-09-13T00:49:26;6.30;;;4.60;;
15833;SDS011;8017;50.812;4.934;2022-09-13T00:52:34;5.47;;;4.80;;
15833;SDS011;8017;50.812;4.934;2022-09-13T00:55:40;5.47;;;4.27;;
15833;SDS011;8017;50.812;4.934;2022-09-13T00:58:45;5.40;;;4.80;;
15833;SDS011;8017;50.812;4.934;2022-09-13T01:01:51;6.67;;;4.80;;
15833;SDS011;8017;50.812;4.934;2022-09-13T01:04:55;5.73;;;4.10;;
15833;SDS011;8017;50.812;4.934;2022-09-13T01:07:56;5.47;;;4.30;;
15833;SDS011;8017;50.812;4.934;2022-09-13T01:11:00;4.83;;;3.33;;
15833;SDS011;8017;50.812;4.934;2022-09-13T01:14:05;5.27;;;3.43;;
15833;SDS011;8017;50.812;4.934;2022-09-13T01:17:07;5.80;;;4.07;;
15833;SDS011;8017;50.812;4.934;2022-09-13T01:20:10;6.63;;;3.40;;
15833;SDS011;8017;50.812;4.934;2022-09-13T01:23:26;4.40;;;2.97;;
15833;SDS011;8017;50.812;4.934;2022-09-13T01:30:41;5.13;;;3.10;;
15833;SDS011;8017;50.812;4.934;2022-09-13T01:33:48;3.50;;;3.20;;
15833;SDS011;8017;50.812;4.934;2022-09-13T01:37:03;3.70;;;3.17;;
15833;SDS011;8017;50.812;4.934;2022-09-13T01:40:30;3.50;;;3.00;;
15833;SDS011;8017;50.812;4.934;2022-09-13T01:43:48;2.60;;;2.40;;
15833;SDS011;8017;50.812;4.934;2022-09-13T01:47:01;4.00;;;2.97;;
15833;SDS011;8017;50.812;4.934;2022-09-13T01:50:10;3.90;;;2.93;;
15833;SDS011;8017;50.812;4.934;2022-09-13T01:53:18;3.77;;;2.97;;
15833;SDS011;8017;50.812;4.934;2022-09-13T01:56:32;3.87;;;3.20;;
15833;SDS011;8017;50.812;4.934;2022-09-13T01:59:42;4.37;;;2.90;;
15833;SDS011;8017;50.812;4.934;2022-09-13T02:02:52;3.43;;;2.60;;
15833;SDS011;8017;50.812;4.934;2022-09-13T02:06:04;3.80;;;2.70;;
15833;SDS011;8017;50.812;4.934;2022-09-13T02:09:08;5.30;;;2.63;;
15833;SDS011;8017;50.812;4.934;2022-09-13T02:12:16;6.77;;;3.30;;
15833;SDS011;8017;50.812;4.934;2022-09-13T02:15:22;4.23;;;2.70;;
15833;SDS011;8017;50.812;4.934;2022-09-13T02:18:29;3.43;;;2.90;;
15833;SDS011;8017;50.812;4.934;2022-09-13T02:21:35;3.43;;;2.93;;
15833;SDS011;8017;50.812;4.934;2022-09-13T02:24:39;6.30;;;2.87;;
15833;SDS011;8017;50.812;4.934;2022-09-13T02:27:46;4.00;;;3.30;;
15833;SDS011;8017;50.812;4.934;2022-09-13T02:30:50;4.27;;;3.30;;
15833;SDS011;8017;50.812;4.934;2022-09-13T02:33:56;4.80;;;3.43;;
15833;SDS011;8017;50.812;4.934;2022-09-13T02:37:02;3.33;;;3.00;;
15833;SDS011;8017;50.812;4.934;2022-09-13T02:40:07;4.67;;;3.37;;
15833;SDS011;8017;50.812;4.934;2022-09-13T02:43:16;3.13;;;2.80;;
15833;SDS011;8017;50.812;4.934;2022-09-13T02:46:26;3.93;;;3.23;;
15833;SDS011;8017;50.812;4.934;2022-09-13T02:49:45;4.20;;;3.10;;
15833;SDS011;8017;50.812;4.934;2022-09-13T02:52:52;6.57;;;3.40;;
15833;SDS011;8017;50.812;4.934;2022-09-13T02:56:04;4.37;;;3.80;;
15833;SDS011;8017;50.812;4.934;2022-09-13T02:59:14;3.90;;;3.50;;
15833;SDS011;8017;50.812;4.934;2022-09-13T03:02:18;4.07;;;3.67;;
15833;SDS011;8017;50.812;4.934;2022-09-13T03:05:26;3.63;;;3.33;;
15833;SDS011;8017;50.812;4.934;2022-09-13T03:08:28;4.47;;;3.20;;
15833;SDS011;8017;50.812;4.934;2022-09-13T03:11:34;3.60;;;3.30;;
15833;SDS011;8017;50.812;4.934;2022-09-13T03:14:48;7.27;;;3.70;;
15833;SDS011;8017;50.812;4.934;2022-09-13T03:17:59;6.67;;;3.77;;
15833;SDS011;8017;50.812;4.934;2022-09-13T03:21:13;4.30;;;3.63;;
15833;SDS011;8017;50.812;4.934;2022-09-13T03:24:29;4.93;;;3.80;;
15833;SDS011;8017;50.812;4.934;2022-09-13T03:27:40;4.07;;;3.60;;
15833;SDS011;8017;50.812;4.934;2022-09-13T03:30:51;5.13;;;3.60;;
15833;SDS011;8017;50.812;4.934;2022-09-13T03:34:02;5.77;;;3.43;;
15833;SDS011;8017;50.812;4.934;2022-09-13T03:37:12;3.87;;;3.27;;
15833;SDS011;8017;50.812;4.934;2022-09-13T03:40:21;5.30;;;3.63;;
15833;SDS011;8017;50.812;4.934;2022-09-13T03:43:31;4.30;;;3.60;;
15833;SDS011;8017;50.812;4.934;2022-09-13T03:46:38;6.47;;;3.80;;
15833;SDS011;8017;50.812;4.934;2022-09-13T03:49:42;4.83;;;3.20;;
15833;SDS011;8017;50.812;4.934;2022-09-13T03:52:45;7.33;;;3.17;;
15833;SDS011;8017;50.812;4.934;2022-09-13T03:55:50;4.97;;;3.33;;
15833;SDS011;8017;50.812;4.934;2022-09-13T03:58:53;4.10;;;3.70;;
15833;SDS011;8017;50.812;4.934;2022-09-13T04:01:55;4.07;;;3.50;;
15833;SDS011;8017;50.812;4.934;2022-09-13T04:04:57;5.87;;;3.60;;
15833;SDS011;8017;50.812;4.934;2022-09-13T04:08:00;6.00;;;3.50;;
15833;SDS011;8017;50.812;4.934;2022-09-13T04:11:04;7.13;;;3.93;;
15833;SDS011;8017;50.812;4.934;2022-09-13T04:14:08;4.27;;;3.30;;
15833;SDS011;8017;50.812;4.934;2022-09-13T04:17:10;5.67;;;4.07;;
15833;SDS011;8017;50.812;4.934;2022-09-13T04:20:12;4.73;;;3.33;;
15833;SDS011;8017;50.812;4.934;2022-09-13T04:23:15;4.87;;;3.70;;
15833;SDS011;8017;50.812;4.934;2022-09-13T04:26:17;6.63;;;4.17;;
15833;SDS011;8017;50.812;4.934;2022-09-13T04:29:21;4.83;;;3.80;;
15833;SDS011;8017;50.812;4.934;2022-09-13T04:32:24;8.07;;;4.23;;
15833;SDS011;8017;50.812;4.934;2022-09-13T04:35:26;5.50;;;4.40;;
15833;SDS011;8017;50.812;4.934;2022-09-13T04:38:29;5.30;;;4.63;;
15833;SDS011;8017;50.812;4.934;2022-09-13T04:41:31;4.70;;;4.30;;
15833;SDS011;8017;50.812;4.934;2022-09-13T04:44:33;4.67;;;4.23;;
15833;SDS011;8017;50.812;4.934;2022-09-13T04:47:35;4.40;;;3.83;;
15833;SDS011;8017;50.812;4.934;2022-09-13T04:50:37;3.73;;;3.43;;
15833;SDS011;8017;50.812;4.934;2022-09-13T04:53:40;5.50;;;3.53;;
15833;SDS011;8017;50.812;4.934;2022-09-13T04:56:42;5.27;;;3.93;;
15833;SDS011;8017;50.812;4.934;2022-09-13T04:59:44;5.67;;;4.00;;
15833;SDS011;8017;50.812;4.934;2022-09-13T05:02:46;5.53;;;4.00;;
15833;SDS011;8017;50.812;4.934;2022-09-13T05:05:48;4.47;;;4.07;;
15833;SDS011;8017;50.812;4.934;2022-09-13T05:08:51;5.90;;;3.87;;
15833;SDS011;8017;50.812;4.934;2022-09-13T05:11:54;5.37;;;3.70;;
15833;SDS011;8017;50.812;4.934;2022-09-13T05:14:56;6.50;;;3.90;;
15833;SDS011;8017;50.812;4.934;2022-09-13T05:17:58;7.63;;;4.07;;
15833;SDS011;8017;50.812;4.934;2022-09-13T05:21:01;8.03;;;3.80;;
15833;SDS011;8017;50.812;4.934;2022-09-13T05:24:06;5.67;;;4.30;;
15833;SDS011;8017;50.812;4.934;2022-09-13T05:27:09;4.80;;;3.67;;
15833;SDS011;8017;50.812;4.934;2022-09-13T05:30:11;5.83;;;4.33;;
15833;SDS011;8017;50.812;4.934;2022-09-13T05:33:14;9.37;;;4.70;;
15833;SDS011;8017;50.812;4.934;2022-09-13T05:36:15;8.83;;;5.47;;
15833;SDS011;8017;50.812;4.934;2022-09-13T05:39:19;8.40;;;4.73;;
15833;SDS011;8017;50.812;4.934;2022-09-13T05:42:21;8.50;;;5.13;;
15833;SDS011;8017;50.812;4.934;2022-09-13T05:45:23;4.87;;;4.47;;
15833;SDS011;8017;50.812;4.934;2022-09-13T05:48:25;7.67;;;5.07;;
15833;SDS011;8017;50.812;4.934;2022-09-13T05:51:27;5.93;;;4.37;;
15833;SDS011;8017;50.812;4.934;2022-09-13T05:54:31;5.20;;;4.67;;
15833;SDS011;8017;50.812;4.934;2022-09-13T05:57:33;6.67;;;4.47;;
15833;SDS011;8017;50.812;4.934;2022-09-13T06:00:36;6.33;;;4.63;;
15833;SDS011;8017;50.812;4.934;2022-09-13T06:03:38;6.90;;;4.70;;
15833;SDS011;8017;50.812;4.934;2022-09-13T06:06:40;7.57;;;5.43;;
15833;SDS011;8017;50.812;4.934;2022-09-13T06:09:43;6.70;;;4.60;;
15833;SDS011;8017;50.812;4.934;2022-09-13T06:12:45;7.50;;;4.37;;
15833;SDS011;8017;50.812;4.934;2022-09-13T06:15:47;5.63;;;4.30;;
15833;SDS011;8017;50.812;4.934;2022-09-13T06:18:49;5.47;;;3.93;;
15833;SDS011;8017;50.812;4.934;2022-09-13T06:21:51;5.50;;;4.03;;
15833;SDS011;8017;50.812;4.934;2022-09-13T06:24:54;4.40;;;3.43;;
15833;SDS011;8017;50.812;4.934;2022-09-13T06:27:56;4.17;;;3.77;;
15833;SDS011;8017;50.812;4.934;2022-09-13T06:30:58;5.67;;;3.77;;
15833;SDS011;8017;50.812;4.934;2022-09-13T06:34:01;6.90;;;4.40;;
15833;SDS011;8017;50.812;4.934;2022-09-13T06:37:03;7.17;;;5.17;;
15833;SDS011;8017;50.812;4.934;2022-09-13T06:40:07;8.37;;;4.87;;
15833;SDS011;8017;50.812;4.934;2022-09-13T06:43:09;6.20;;;4.10;;
15833;SDS011;8017;50.812;4.934;2022-09-13T06:46:12;5.47;;;3.93;;
15833;SDS011;8017;50.812;4.934;2022-09-13T06:49:15;7.07;;;4.13;;
15833;SDS011;8017;50.812;4.934;2022-09-13T06:52:17;7.13;;;4.13;;
15833;SDS011;8017;50.812;4.934;2022-09-13T06:55:20;9.23;;;3.77;;
15833;SDS011;8017;50.812;4.934;2022-09-13T06:58:22;7.13;;;4.23;;
15833;SDS011;8017;50.812;4.934;2022-09-13T07:01:25;7.60;;;4.13;;
15833;SDS011;8017;50.812;4.934;2022-09-13T07:04:28;10.70;;;4.53;;
15833;SDS011;8017;50.812;4.934;2022-09-13T07:07:31;7.67;;;3.77;;
15833;SDS011;8017;50.812;4.934;2022-09-13T07:10:34;9.37;;;3.87;;
15833;SDS011;8017;50.812;4.934;2022-09-13T07:13:36;6.60;;;4.30;;
15833;SDS011;8017;50.812;4.934;2022-09-13T07:16:38;9.07;;;4.30;;
15833;SDS011;8017;50.812;4.934;2022-09-13T07:19:40;6.70;;;4.50;;
15833;SDS011;8017;50.812;4.934;2022-09-13T07:22:42;10.57;;;4.70;;
15833;SDS011;8017;50.812;4.934;2022-09-13T07:25:53;6.67;;;3.60;;
15833;SDS011;8017;50.812;4.934;2022-09-13T07:29:01;4.53;;;3.50;;
15833;SDS011;8017;50.812;4.934;2022-09-13T07:32:05;4.90;;;4.07;;
15833;SDS011;8017;50.812;4.934;2022-09-13T07:35:06;4.83;;;3.50;;
15833;SDS011;8017;50.812;4.934;2022-09-13T07:38:08;4.13;;;3.67;;
15833;SDS011;8017;50.812;4.934;2022-09-13T07:41:13;5.53;;;3.70;;
15833;SDS011;8017;50.812;4.934;2022-09-13T07:44:15;6.73;;;3.60;;
15833;SDS011;8017;50.812;4.934;2022-09-13T07:47:17;5.13;;;3.63;;
15833;SDS011;8017;50.812;4.934;2022-09-13T07:50:19;6.67;;;3.57;;
15833;SDS011;8017;50.812;4.934;2022-09-13T07:53:21;8.93;;;4.53;;
15833;SDS011;8017;50.812;4.934;2022-09-13T07:56:25;8.00;;;4.67;;
15833;SDS011;8017;50.812;4.934;2022-09-13T07:59:30;8.83;;;4.27;;
15833;SDS011;8017;50.812;4.934;2022-09-13T08:02:32;4.63;;;4.00;;
15833;SDS011;8017;50.812;4.934;2022-09-13T08:05:37;4.57;;;3.70;;
15833;SDS011;8017;50.812;4.934;2022-09-13T08:08:39;10.97;;;4.07;;
15833;SDS011;8017;50.812;4.934;2022-09-13T08:11:43;8.40;;;3.63;;
15833;SDS011;8017;50.812;4.934;2022-09-13T08:14:46;4.77;;;3.47;;
15833;SDS011;8017;50.812;4.934;2022-09-13T08:17:48;7.50;;;3.50;;
15833;SDS011;8017;50.812;4.934;2022-09-13T08:20:50;5.90;;;3.40;;
15833;SDS011;8017;50.812;4.934;2022-09-13T08:23:55;9.23;;;4.17;;
15833;SDS011;8017;50.812;4.934;2022-09-13T08:27:01;5.67;;;3.17;;
15833;SDS011;8017;50.812;4.934;2022-09-13T08:30:03;12.93;;;3.80;;
15833;SDS011;8017;50.812;4.934;2022-09-13T08:33:05;8.97;;;3.20;;
15833;SDS011;8017;50.812;4.934;2022-09-13T08:36:07;4.43;;;3.00;;
15833;SDS011;8017;50.812;4.934;2022-09-13T08:39:09;4.67;;;2.73;;
15833;SDS011;8017;50.812;4.934;2022-09-13T08:42:19;5.10;;;2.77;;
15833;SDS011;8017;50.812;4.934;2022-09-13T08:45:29;3.60;;;2.77;;
15833;SDS011;8017;50.812;4.934;2022-09-13T08:48:32;4.80;;;2.60;;
15833;SDS011;8017;50.812;4.934;2022-09-13T08:51:36;5.20;;;2.97;;
15833;SDS011;8017;50.812;4.934;2022-09-13T08:54:42;5.43;;;2.93;;
15833;SDS011;8017;50.812;4.934;2022-09-13T08:57:46;2.43;;;2.23;;
15833;SDS011;8017;50.812;4.934;2022-09-13T09:00:57;4.37;;;2.30;;
15833;SDS011;8017;50.812;4.934;2022-09-13T09:04:06;3.50;;;2.40;;
15833;SDS011;8017;50.812;4.934;2022-09-13T09:07:16;4.90;;;2.50;;
15833;SDS011;8017;50.812;4.934;2022-09-13T09:10:21;4.00;;;2.27;;
15833;SDS011;8017;50.812;4.934;2022-09-13T09:13:29;3.40;;;2.33;;
15833;SDS011;8017;50.812;4.934;2022-09-13T09:16:36;4.03;;;2.00;;
15833;SDS011;8017;50.812;4.934;2022-09-13T09:19:42;4.13;;;2.17;;
15833;SDS011;8017;50.812;4.934;2022-09-13T09:22:47;3.60;;;2.10;;
15833;SDS011;8017;50.812;4.934;2022-09-13T09:25:50;2.57;;;2.03;;
15833;SDS011;8017;50.812;4.934;2022-09-13T09:28:59;10.63;;;2.67;;
15833;SDS011;8017;50.812;4.934;2022-09-13T09:32:08;2.77;;;2.00;;
15833;SDS011;8017;50.812;4.934;2022-09-13T09:35:23;2.50;;;2.30;;
15833;SDS011;8017;50.812;4.934;2022-09-13T09:38:32;4.23;;;2.30;;
15833;SDS011;8017;50.812;4.934;2022-09-13T09:41:38;3.73;;;2.70;;
15833;SDS011;8017;50.812;4.934;2022-09-13T09:44:42;4.93;;;2.83;;
15833;SDS011;8017;50.812;4.934;2022-09-13T09:47:45;5.47;;;2.77;;
15833;SDS011;8017;50.812;4.934;2022-09-13T09:50:50;4.87;;;3.33;;
15833;SDS011;8017;50.812;4.934;2022-09-13T09:53:58;5.63;;;3.17;;
15833;SDS011;8017;50.812;4.934;2022-09-13T09:57:04;7.60;;;2.87;;
15833;SDS011;8017;50.812;4.934;2022-09-13T10:00:10;5.47;;;2.63;;
15833;SDS011;8017;50.812;4.934;2022-09-13T10:03:15;6.07;;;3.10;;
15833;SDS011;8017;50.812;4.934;2022-09-13T10:06:19;7.27;;;3.20;;
15833;SDS011;8017;50.812;4.934;2022-09-13T10:09:23;3.83;;;3.37;;
15833;SDS011;8017;50.812;4.934;2022-09-13T10:12:26;4.77;;;3.47;;
15833;SDS011;8017;50.812;4.934;2022-09-13T10:15:34;6.57;;;3.67;;
15833;SDS011;8017;50.812;4.934;2022-09-13T10:18:36;4.17;;;3.33;;
15833;SDS011;8017;50.812;4.934;2022-09-13T10:21:38;5.93;;;4.10;;
15833;SDS011;8017;50.812;4.934;2022-09-13T10:24:39;5.73;;;3.50;;
15833;SDS011;8017;50.812;4.934;2022-09-13T10:27:41;3.30;;;3.00;;
15833;SDS011;8017;50.812;4.934;2022-09-13T10:30:53;4.97;;;3.23;;
15833;SDS011;8017;50.812;4.934;2022-09-13T10:33:57;5.07;;;3.43;;
15833;SDS011;8017;50.812;4.934;2022-09-13T10:37:03;6.40;;;4.00;;
15833;SDS011;8017;50.812;4.934;2022-09-13T10:40:15;4.97;;;3.50;;
15833;SDS011;8017;50.812;4.934;2022-09-13T10:43:21;4.57;;;3.37;;
15833;SDS011;8017;50.812;4.934;2022-09-13T10:46:26;8.43;;;4.00;;
15833;SDS011;8017;50.812;4.934;2022-09-13T10:49:38;9.30;;;4.10;;
15833;SDS011;8017;50.812;4.934;2022-09-13T10:52:46;4.23;;;3.53;;
15833;SDS011;8017;50.812;4.934;2022-09-13T10:55:51;4.97;;;2.90;;
15833;SDS011;8017;50.812;4.934;2022-09-13T10:58:55;4.53;;;3.13;;
15833;SDS011;8017;50.812;4.934;2022-09-13T11:02:35;5.47;;;2.63;;
15833;SDS011;8017;50.812;4.934;2022-09-13T11:05:52;3.90;;;2.50;;
15833;SDS011;8017;50.812;4.934;2022-09-13T11:09:04;3.23;;;2.33;;
15833;SDS011;8017;50.812;4.934;2022-09-13T11:12:13;3.97;;;2.30;;
15833;SDS011;8017;50.812;4.934;2022-09-13T11:15:26;4.07;;;2.23;;
15833;SDS011;8017;50.812;4.934;2022-09-13T11:18:49;3.80;;;2.43;;
15833;SDS011;8017;50.812;4.934;2022-09-13T11:22:09;2.97;;;2.27;;
15833;SDS011;8017;50.812;4.934;2022-09-13T11:25:28;2.83;;;1.90;;
15833;SDS011;8017;50.812;4.934;2022-09-13T11:28:44;3.43;;;2.23;;
15833;SDS011;8017;50.812;4.934;2022-09-13T11:31:55;3.40;;;2.57;;
15833;SDS011;8017;50.812;4.934;2022-09-13T11:35:15;3.63;;;2.33;;
15833;SDS011;8017;50.812;4.934;2022-09-13T11:38:30;4.10;;;2.57;;
15833;SDS011;8017;50.812;4.934;2022-09-13T11:41:39;3.63;;;2.00;;
15833;SDS011;8017;50.812;4.934;2022-09-13T11:44:53;6.37;;;2.10;;
15833;SDS011;8017;50.812;4.934;2022-09-13T11:48:24;2.57;;;1.83;;
15833;SDS011;8017;50.812;4.934;2022-09-13T11:51:40;2.40;;;1.90;;
15833;SDS011;8017;50.812;4.934;2022-09-13T11:54:51;3.83;;;2.03;;
15833;SDS011;8017;50.812;4.934;2022-09-13T11:58:02;2.47;;;2.13;;
15833;SDS011;8017;50.812;4.934;2022-09-13T12:01:06;4.07;;;2.23;;
15833;SDS011;8017;50.812;4.934;2022-09-13T12:04:12;4.17;;;2.00;;
15833;SDS011;8017;50.812;4.934;2022-09-13T12:07:23;7.43;;;2.20;;
15833;SDS011;8017;50.812;4.934;2022-09-13T12:10:33;3.57;;;1.60;;
15833;SDS011;8017;50.812;4.934;2022-09-13T12:13:39;3.53;;;2.20;;
15833;SDS011;8017;50.812;4.934;2022-09-13T12:16:45;2.43;;;1.83;;
15833;SDS011;8017;50.812;4.934;2022-09-13T12:19:50;4.87;;;2.10;;
15833;SDS011;8017;50.812;4.934;2022-09-13T12:22:56;3.07;;;1.77;;
15833;SDS011;8017;50.812;4.934;2022-09-13T12:26:02;3.97;;;2.03;;
15833;SDS011;8017;50.812;4.934;2022-09-13T12:29:10;1.93;;;1.60;;
15833;SDS011;8017;50.812;4.934;2022-09-13T12:32:18;3.93;;;2.10;;
15833;SDS011;8017;50.812;4.934;2022-09-13T12:35:24;3.50;;;1.50;;
15833;SDS011;8017;50.812;4.934;2022-09-13T12:38:44;3.27;;;1.50;;
15833;SDS011;8017;50.812;4.934;2022-09-13T12:42:07;3.53;;;1.80;;
15833;SDS011;8017;50.812;4.934;2022-09-13T12:45:35;4.90;;;1.60;;
15833;SDS011;8017;50.812;4.934;2022-09-13T12:49:07;3.13;;;1.63;;
15833;SDS011;8017;50.812;4.934;2022-09-13T12:52:30;2.17;;;1.57;;
15833;SDS011;8017;50.812;4.934;2022-09-13T12:55:45;5.77;;;1.90;;
15833;SDS011;8017;50.812;4.934;2022-09-13T12:59:14;3.40;;;1.90;;
15833;SDS011;8017;50.812;4.934;2022-09-13T13:02:35;4.13;;;1.70;;
15833;SDS011;8017;50.812;4.934;2022-09-13T13:05:40;2.30;;;2.00;;
15833;SDS011;8017;50.812;4.934;2022-09-13T13:08:48;3.20;;;1.80;;
15833;SDS011;8017;50.812;4.934;2022-09-13T13:11:53;3.30;;;2.10;;
15833;SDS011;8017;50.812;4.934;2022-09-13T13:14:56;3.33;;;2.10;;
15833;SDS011;8017;50.812;4.934;2022-09-13T13:18:18;4.30;;;2.10;;
15833;SDS011;8017;50.812;4.934;2022-09-13T13:21:28;4.10;;;2.13;;
15833;SDS011;8017;50.812;4.934;2022-09-13T13:24:42;3.80;;;1.87;;
15833;SDS011;8017;50.812;4.934;2022-09-13T13:27:48;3.90;;;2.13;;
15833;SDS011;8017;50.812;4.934;2022-09-13T13:30:54;5.03;;;2.20;;
15833;SDS011;8017;50.812;4.934;2022-09-13T13:34:09;4.67;;;2.13;;
15833;SDS011;8017;50.812;4.934;2022-09-13T13:37:45;6.40;;;2.20;;
15833;SDS011;8017;50.812;4.934;2022-09-13T13:40:47;5.33;;;2.10;;
15833;SDS011;8017;50.812;4.934;2022-09-13T13:43:54;4.53;;;1.97;;
15833;SDS011;8017;50.812;4.934;2022-09-13T13:51:14;5.17;;;2.07;;
15833;SDS011;8017;50.812;4.934;2022-09-13T13:54:30;2.73;;;2.13;;
15833;SDS011;8017;50.812;4.934;2022-09-13T13:58:00;3.83;;;2.10;;
15833;SDS011;8017;50.812;4.934;2022-09-13T14:01:10;5.43;;;2.33;;
15833;SDS011;8017;50.812;4.934;2022-09-13T14:08:02;4.23;;;2.83;;
15833;SDS011;8017;50.812;4.934;2022-09-13T14:11:26;9.23;;;4.20;;
15833;SDS011;8017;50.812;4.934;2022-09-13T14:14:41;6.27;;;3.93;;
15833;SDS011;8017;50.812;4.934;2022-09-13T14:18:05;7.50;;;3.90;;
15833;SDS011;8017;50.812;4.934;2022-09-13T14:21:36;5.27;;;3.57;;
15833;SDS011;8017;50.812;4.934;2022-09-13T14:24:38;5.83;;;3.87;;
15833;SDS011;8017;50.812;4.934;2022-09-13T14:27:42;4.23;;;3.20;;
15833;SDS011;8017;50.812;4.934;2022-09-13T14:30:45;4.07;;;2.90;;
15833;SDS011;8017;50.812;4.934;2022-09-13T14:33:48;4.17;;;2.70;;
15833;SDS011;8017;50.812;4.934;2022-09-13T14:36:52;4.00;;;2.80;;
15833;SDS011;8017;50.812;4.934;2022-09-13T14:39:56;4.50;;;3.47;;
15833;SDS011;8017;50.812;4.934;2022-09-13T14:42:59;5.23;;;3.63;;
15833;SDS011;8017;50.812;4.934;2022-09-13T14:46:15;6.00;;;4.10;;
15833;SDS011;8017;50.812;4.934;2022-09-13T14:49:23;5.13;;;4.20;;
15833;SDS011;8017;50.812;4.934;2022-09-13T14:52:29;5.83;;;4.27;;
15833;SDS011;8017;50.812;4.934;2022-09-13T14:55:34;5.17;;;3.90;;
15833;SDS011;8017;50.812;4.934;2022-09-13T14:58:40;5.87;;;4.43;;
15833;SDS011;8017;50.812;4.934;2022-09-13T15:01:44;7.00;;;4.60;;
15833;SDS011;8017;50.812;4.934;2022-09-13T15:04:49;8.53;;;5.23;;
15833;SDS011;8017;50.812;4.934;2022-09-13T15:07:52;7.30;;;5.60;;
15833;SDS011;8017;50.812;4.934;2022-09-13T15:10:55;9.60;;;6.07;;
15833;SDS011;8017;50.812;4.934;2022-09-13T15:14:01;7.07;;;5.43;;
15833;SDS011;8017;50.812;4.934;2022-09-13T15:17:13;9.40;;;5.90;;
15833;SDS011;8017;50.812;4.934;2022-09-13T15:20:16;7.47;;;5.47;;
15833;SDS011;8017;50.812;4.934;2022-09-13T15:23:20;5.40;;;4.83;;
15833;SDS011;8017;50.812;4.934;2022-09-13T15:26:24;9.03;;;5.87;;
15833;SDS011;8017;50.812;4.934;2022-09-13T15:29:26;7.17;;;5.30;;
15833;SDS011;8017;50.812;4.934;2022-09-13T15:32:38;6.93;;;6.10;;
15833;SDS011;8017;50.812;4.934;2022-09-13T15:35:42;10.00;;;5.47;;
15833;SDS011;8017;50.812;4.934;2022-09-13T15:38:56;6.10;;;5.50;;
15833;SDS011;8017;50.812;4.934;2022-09-13T15:42:00;7.17;;;5.03;;
15833;SDS011;8017;50.812;4.934;2022-09-13T15:45:02;8.50;;;5.73;;
15833;SDS011;8017;50.812;4.934;2022-09-13T15:48:04;5.90;;;5.30;;
15833;SDS011;8017;50.812;4.934;2022-09-13T15:51:09;8.97;;;5.77;;
15833;SDS011;8017;50.812;4.934;2022-09-13T15:54:13;6.77;;;5.80;;
15833;SDS011;8017;50.812;4.934;2022-09-13T15:57:16;6.13;;;5.50;;
15833;SDS011;8017;50.812;4.934;2022-09-13T16:00:22;6.27;;;5.10;;
15833;SDS011;8017;50.812;4.934;2022-09-13T16:03:27;7.17;;;5.87;;
15833;SDS011;8017;50.812;4.934;2022-09-13T16:06:31;10.07;;;6.00;;
15833;SDS011;8017;50.812;4.934;2022-09-13T16:09:33;6.57;;;5.77;;
15833;SDS011;8017;50.812;4.934;2022-09-13T16:12:37;7.47;;;5.47;;
15833;SDS011;8017;50.812;4.934;2022-09-13T16:15:40;6.50;;;5.90;;
15833;SDS011;8017;50.812;4.934;2022-09-13T16:18:42;6.80;;;6.00;;
15833;SDS011;8017;50.812;4.934;2022-09-13T16:21:45;8.87;;;5.60;;
15833;SDS011;8017;50.812;4.934;2022-09-13T16:24:48;6.67;;;5.63;;
15833;SDS011;8017;50.812;4.934;2022-09-13T16:27:50;7.80;;;5.00;;
15833;SDS011;8017;50.812;4.934;2022-09-13T16:30:54;6.60;;;4.90;;
15833;SDS011;8017;50.812;4.934;2022-09-13T16:33:56;6.33;;;4.93;;
15833;SDS011;8017;50.812;4.934;2022-09-13T16:37:00;5.07;;;4.40;;
15833;SDS011;8017;50.812;4.934;2022-09-13T16:40:02;4.67;;;4.13;;
15833;SDS011;8017;50.812;4.934;2022-09-13T16:43:05;3.60;;;3.13;;
15833;SDS011;8017;50.812;4.934;2022-09-13T16:46:07;4.93;;;3.80;;
15833;SDS011;8017;50.812;4.934;2022-09-13T16:49:10;4.73;;;3.80;;
15833;SDS011;8017;50.812;4.934;2022-09-13T16:52:14;6.07;;;3.93;;
15833;SDS011;8017;50.812;4.934;2022-09-13T16:55:16;5.00;;;3.60;;
15833;SDS011;8017;50.812;4.934;2022-09-13T16:58:18;5.07;;;3.27;;
15833;SDS011;8017;50.812;4.934;2022-09-13T17:01:21;5.53;;;3.90;;
15833;SDS011;8017;50.812;4.934;2022-09-13T17:04:25;5.13;;;3.43;;
15833;SDS011;8017;50.812;4.934;2022-09-13T17:07:29;5.53;;;3.60;;
15833;SDS011;8017;50.812;4.934;2022-09-13T17:10:31;6.10;;;4.47;;
15833;SDS011;8017;50.812;4.934;2022-09-13T17:13:34;7.63;;;4.50;;
15833;SDS011;8017;50.812;4.934;2022-09-13T17:16:37;5.67;;;4.63;;
15833;SDS011;8017;50.812;4.934;2022-09-13T17:19:41;6.97;;;4.90;;
15833;SDS011;8017;50.812;4.934;2022-09-13T17:22:45;9.93;;;5.33;;
15833;SDS011;8017;50.812;4.934;2022-09-13T17:25:47;9.00;;;5.47;;
15833;SDS011;8017;50.812;4.934;2022-09-13T17:28:52;8.43;;;5.53;;
15833;SDS011;8017;50.812;4.934;2022-09-13T17:31:54;8.73;;;6.00;;
15833;SDS011;8017;50.812;4.934;2022-09-13T17:34:56;8.10;;;6.00;;
15833;SDS011;8017;50.812;4.934;2022-09-13T17:37:59;8.23;;;6.43;;
15833;SDS011;8017;50.812;4.934;2022-09-13T17:41:02;7.33;;;6.27;;
15833;SDS011;8017;50.812;4.934;2022-09-13T17:44:05;9.53;;;6.33;;
15833;SDS011;8017;50.812;4.934;2022-09-13T17:47:07;6.87;;;5.83;;
15833;SDS011;8017;50.812;4.934;2022-09-13T17:50:09;7.63;;;6.73;;
15833;SDS011;8017;50.812;4.934;2022-09-13T17:53:13;9.10;;;6.53;;
15833;SDS011;8017;50.812;4.934;2022-09-13T17:56:15;8.77;;;6.37;;
15833;SDS011;8017;50.812;4.934;2022-09-13T17:59:19;6.43;;;5.63;;
15833;SDS011;8017;50.812;4.934;2022-09-13T18:02:21;5.47;;;4.77;;
15833;SDS011;8017;50.812;4.934;2022-09-13T18:05:25;8.30;;;5.63;;
15833;SDS011;8017;50.812;4.934;2022-09-13T18:08:29;5.67;;;5.13;;
15833;SDS011;8017;50.812;4.934;2022-09-13T18:11:31;6.80;;;5.13;;
15833;SDS011;8017;50.812;4.934;2022-09-13T18:14:33;4.70;;;4.20;;
15833;SDS011;8017;50.812;4.934;2022-09-13T18:17:35;6.80;;;4.67;;
15833;SDS011;8017;50.812;4.934;2022-09-13T18:20:37;6.33;;;5.50;;
15833;SDS011;8017;50.812;4.934;2022-09-13T18:23:41;11.10;;;7.47;;
15833;SDS011;8017;50.812;4.934;2022-09-13T18:26:43;7.83;;;7.10;;
15833;SDS011;8017;50.812;4.934;2022-09-13T18:29:45;9.00;;;7.57;;
15833;SDS011;8017;50.812;4.934;2022-09-13T18:32:47;9.80;;;7.03;;
15833;SDS011;8017;50.812;4.934;2022-09-13T18:35:56;8.40;;;6.97;;
15833;SDS011;8017;50.812;4.934;2022-09-13T18:39:00;6.90;;;6.10;;
15833;SDS011;8017;50.812;4.934;2022-09-13T18:42:03;9.67;;;6.20;;
15833;SDS011;8017;50.812;4.934;2022-09-13T18:45:06;8.43;;;6.93;;
15833;SDS011;8017;50.812;4.934;2022-09-13T18:48:09;8.17;;;6.67;;
15833;SDS011;8017;50.812;4.934;2022-09-13T18:51:11;6.57;;;5.97;;
15833;SDS011;8017;50.812;4.934;2022-09-13T18:54:16;8.50;;;7.53;;
15833;SDS011;8017;50.812;4.934;2022-09-13T18:57:18;11.23;;;8.97;;
15833;SDS011;8017;50.812;4.934;2022-09-13T19:00:20;8.37;;;7.57;;
15833;SDS011;8017;50.812;4.934;2022-09-13T19:03:22;7.80;;;7.03;;
15833;SDS011;8017;50.812;4.934;2022-09-13T19:06:25;7.10;;;6.27;;
15833;SDS011;8017;50.812;4.934;2022-09-13T19:09:29;7.20;;;5.73;;